Etna, New York
Current Conditions -  °F | °C
As of 7:56 AM on Tuesday 21 Oct 2014 (Local Time) from KITH Reporting Station
Overcast Overcast  
Wind Chill: 46°   Ceiling: 3300
Heat Index: 48°   Visibility: 10mi
Dew Point: 43°   Wind: 5mph
Humidity: 83%   Direction: 150°SSE
Pressure: 29.84"   Gusts: NA
Location:  42.48°N, 76.38°W
Report Text: KITH 211156Z 15004KT 10SM OVC033 09/06 A2984 RMK AO2 53001 60001 70005 T00880061 10088 20077 SLP108
Loading
Personal Weather Stations






























Interactive Weather Map
Tropical Storm Tracking
New forecast layout! Learn more

10-Day Weather Forecast

Advertisements
Track Severe Weather on mobile